Time;durP1;ratioP1;P1;durP2;ratioP2;P2;SDS_P1;SDS_P2;PMS_P1;PMS_P2;Temp;Humidity;BMP_temperature;BMP_pressure;BME280_temperature;BME280_humidity;BME280_pressure;Samples;Min_cycle;Max_cycle;Signal;HPM_P1;HPM_P2
2020/12/20 00:00:23;;;;;;;11.80;11.00;;;10.40;99.90;;;;;;5073843;28;20478;-65
2020/12/20 00:02:51;;;;;;;11.60;10.80;;;10.40;99.90;;;;;;5074069;28;20447;-65
2020/12/20 00:05:19;;;;;;;12.50;11.60;;;10.40;99.90;;;;;;5074097;28;20834;-65
2020/12/20 00:07:45;;;;;;;12.20;11.30;;;10.50;99.90;;;;;;5073994;28;20505;-65
2020/12/20 00:10:12;;;;;;;11.37;10.57;;;10.50;99.90;;;;;;5073784;28;20488;-65
2020/12/20 00:12:38;;;;;;;12.03;11.10;;;10.50;99.90;;;;;;5074028;28;20446;-65
2020/12/20 00:15:06;;;;;;;11.40;10.43;;;10.50;99.90;;;;;;5073872;28;20467;-65
2020/12/20 00:17:32;;;;;;;11.80;10.83;;;10.50;99.90;;;;;;5073846;28;20447;-65
2020/12/20 00:19:59;;;;;;;12.00;11.10;;;10.50;99.90;;;;;;5073642;28;20988;-68
2020/12/20 00:22:25;;;;;;;12.03;11.20;;;10.50;99.90;;;;;;5073718;28;20447;-65
2020/12/20 00:24:51;;;;;;;12.27;11.40;;;10.60;99.90;;;;;;5073682;28;20886;-65
2020/12/20 00:27:17;;;;;;;10.63;9.83;;;10.50;99.90;;;;;;5073708;28;20450;-66
2020/12/20 00:29:44;;;;;;;12.20;11.20;;;10.50;99.90;;;;;;5073557;28;20808;-68
2020/12/20 00:32:12;;;;;;;10.77;9.97;;;10.50;99.90;;;;;;5073520;28;20541;-65
2020/12/20 00:34:40;;;;;;;10.90;10.10;;;10.50;99.90;;;;;;5073469;28;20984;-65
2020/12/20 00:37:07;;;;;;;12.80;11.77;;;10.50;99.90;;;;;;5073506;28;21069;-65
2020/12/20 00:39:33;;;;;;;12.87;11.40;;;10.50;99.90;;;;;;5073277;28;20458;-67
2020/12/20 00:42:01;;;;;;;11.50;10.70;;;10.40;99.90;;;;;;5073393;28;20439;-67
2020/12/20 00:44:28;;;;;;;10.30;9.40;;;10.50;99.90;;;;;;5073233;28;20461;-67
2020/12/20 00:46:55;;;;;;;10.43;9.33;;;10.50;99.90;;;;;;5073436;28;20501;-67
2020/12/20 00:49:23;;;;;;;10.30;9.43;;;10.50;99.90;;;;;;5073340;28;20862;-67
2020/12/20 00:51:50;;;;;;;10.23;9.53;;;10.50;99.90;;;;;;5072055;28;20447;-66
2020/12/20 00:54:16;;;;;;;10.73;9.93;;;10.50;99.90;;;;;;5072985;28;20446;-64
2020/12/20 00:56:42;;;;;;;10.90;10.20;;;10.50;99.90;;;;;;5073185;28;20504;-65
2020/12/20 00:59:09;;;;;;;10.97;10.17;;;10.50;99.90;;;;;;5073190;28;20458;-65
2020/12/20 01:01:35;;;;;;;11.27;10.47;;;10.50;99.90;;;;;;5072634;28;20479;-65
2020/12/20 01:04:01;;;;;;;11.37;10.40;;;10.50;99.90;;;;;;5073022;28;20439;-65
2020/12/20 01:06:28;;;;;;;11.03;10.23;;;10.50;99.90;;;;;;5073062;28;20447;-65
2020/12/20 01:08:55;;;;;;;12.00;10.73;;;10.50;99.90;;;;;;5072927;28;20493;-67
2020/12/20 01:11:21;;;;;;;10.63;9.90;;;10.50;99.90;;;;;;5072621;28;20439;-68
2020/12/20 01:13:49;;;;;;;10.80;9.90;;;10.40;99.90;;;;;;5072753;28;20475;-66
2020/12/20 01:16:16;;;;;;;10.10;9.40;;;10.40;99.90;;;;;;5072593;28;20474;-67
2020/12/20 01:18:42;;;;;;;10.57;9.87;;;10.40;99.90;;;;;;5072773;28;20439;-68
2020/12/20 01:21:09;;;;;;;9.60;9.00;;;10.40;99.90;;;;;;5072452;28;20483;-67
2020/12/20 01:23:36;;;;;;;10.37;9.63;;;10.40;99.90;;;;;;5072583;28;20446;-67
2020/12/20 01:26:02;;;;;;;10.60;9.50;;;10.40;99.90;;;;;;5072446;28;20482;-67
2020/12/20 01:28:29;;;;;;;10.37;9.67;;;10.40;99.90;;;;;;5072475;28;20450;-67
2020/12/20 01:30:55;;;;;;;10.87;9.80;;;10.40;99.90;;;;;;5072208;28;20497;-68
2020/12/20 01:33:22;;;;;;;10.50;9.70;;;10.50;99.90;;;;;;5072460;28;20443;-67
2020/12/20 01:35:48;;;;;;;10.00;9.40;;;10.50;99.90;;;;;;5072354;28;20459;-67
2020/12/20 01:38:14;;;;;;;9.50;8.90;;;10.60;99.90;;;;;;5072468;28;20443;-68
2020/12/20 01:40:41;;;;;;;9.60;9.07;;;10.60;99.90;;;;;;5072117;28;20483;-66
2020/12/20 01:43:07;;;;;;;10.40;9.60;;;10.60;99.90;;;;;;5072219;28;20439;-66
2020/12/20 01:45:34;;;;;;;9.90;9.27;;;10.60;99.90;;;;;;5072042;28;21033;-67
2020/12/20 01:48:00;;;;;;;11.00;9.97;;;10.60;99.90;;;;;;5072189;28;20443;-67
2020/12/20 01:50:26;;;;;;;9.70;9.00;;;10.70;99.90;;;;;;5071788;28;20435;-67
2020/12/20 01:52:53;;;;;;;10.63;9.83;;;10.70;99.90;;;;;;5072007;28;20445;-66
2020/12/20 01:55:19;;;;;;;10.47;9.77;;;10.70;99.90;;;;;;5071944;28;20459;-67
2020/12/20 01:57:47;;;;;;;10.77;10.07;;;10.70;99.90;;;;;;5071915;28;20450;-66
2020/12/20 02:00:13;;;;;;;9.70;9.10;;;10.70;99.90;;;;;;5071550;28;20486;-67
2020/12/20 02:02:39;;;;;;;10.07;9.33;;;10.70;99.90;;;;;;5071751;28;20443;-66
2020/12/20 02:05:05;;;;;;;10.53;9.83;;;10.70;99.90;;;;;;5071828;28;20843;-66
2020/12/20 02:07:31;;;;;;;10.20;9.60;;;10.70;99.90;;;;;;5071920;28;20818;-67
2020/12/20 02:09:58;;;;;;;11.10;10.30;;;10.70;99.90;;;;;;5071760;28;20504;-67
2020/12/20 02:12:26;;;;;;;10.57;9.87;;;10.70;99.90;;;;;;5071929;28;20442;-68
2020/12/20 02:14:54;;;;;;;10.73;10.03;;;10.80;99.90;;;;;;5071756;28;20462;-68
2020/12/20 02:17:20;;;;;;;10.50;9.80;;;10.80;99.90;;;;;;5071703;28;20443;-67
2020/12/20 02:19:46;;;;;;;10.13;9.43;;;10.80;99.90;;;;;;5071498;28;20447;-67
2020/12/20 02:22:13;;;;;;;10.43;9.80;;;10.80;99.90;;;;;;5071660;28;20443;-67
2020/12/20 02:24:40;;;;;;;11.03;10.23;;;10.70;99.90;;;;;;5071879;28;20462;-66
2020/12/20 02:27:06;;;;;;;11.37;10.67;;;10.80;99.90;;;;;;5071516;28;20450;-66
2020/12/20 02:29:32;;;;;;;11.07;10.30;;;10.80;99.90;;;;;;5071334;28;20443;-66
2020/12/20 02:31:59;;;;;;;9.97;9.20;;;10.80;99.90;;;;;;5071421;28;20431;-65
2020/12/20 02:34:26;;;;;;;11.30;10.50;;;10.80;99.90;;;;;;5071484;28;20463;-65
2020/12/20 02:36:52;;;;;;;10.87;9.97;;;10.70;99.90;;;;;;5071472;28;20791;-65
2020/12/20 02:39:20;;;;;;;11.77;10.60;;;10.70;99.90;;;;;;5071479;28;20440;-66
2020/12/20 02:41:46;;;;;;;10.17;9.47;;;10.70;99.90;;;;;;5071093;28;21089;-64
2020/12/20 02:44:12;;;;;;;10.83;10.13;;;10.70;99.90;;;;;;5071519;28;20834;-65
2020/12/20 02:46:38;;;;;;;10.73;9.83;;;10.70;99.90;;;;;;5071424;28;20447;-66
2020/12/20 02:49:05;;;;;;;10.87;10.17;;;10.60;99.90;;;;;;5071369;28;20443;-65
2020/12/20 02:51:31;;;;;;;10.00;9.40;;;10.60;99.90;;;;;;5071069;28;20921;-67
2020/12/20 02:53:57;;;;;;;10.47;9.77;;;10.60;99.90;;;;;;5071378;28;20446;-68
2020/12/20 02:56:25;;;;;;;10.20;9.47;;;10.50;99.90;;;;;;5071279;28;20474;-67
2020/12/20 02:58:52;;;;;;;10.90;10.10;;;10.60;99.90;;;;;;5071158;28;20956;-68
2020/12/20 03:01:18;;;;;;;11.57;10.50;;;10.60;99.90;;;;;;5071021;28;20995;-68
2020/12/20 03:03:44;;;;;;;10.67;9.87;;;10.50;99.90;;;;;;5071171;28;20451;-67
2020/12/20 03:06:10;;;;;;;11.77;10.87;;;10.60;99.90;;;;;;5071140;28;20957;-68
2020/12/20 03:08:37;;;;;;;10.60;9.63;;;10.50;99.90;;;;;;5071141;28;20474;-67
2020/12/20 03:11:03;;;;;;;10.90;9.70;;;10.50;99.90;;;;;;5070893;28;20932;-66
2020/12/20 03:13:30;;;;;;;10.97;10.10;;;10.50;99.90;;;;;;5071584;28;20448;-67
2020/12/20 03:15:56;;;;;;;9.27;8.57;;;10.50;99.90;;;;;;5075111;28;20466;-68
2020/12/20 03:18:22;;;;;;;10.50;9.57;;;10.40;99.90;;;;;;5075075;28;20441;-67
2020/12/20 03:20:49;;;;;;;11.20;10.23;;;10.40;99.90;;;;;;5074628;28;20491;-68
2020/12/20 03:23:15;;;;;;;10.63;9.97;;;10.40;99.90;;;;;;5074938;28;20445;-67
2020/12/20 03:25:41;;;;;;;10.10;9.40;;;10.30;99.90;;;;;;5074701;28;20481;-67
2020/12/20 03:28:07;;;;;;;10.57;9.57;;;10.30;99.90;;;;;;5074802;28;20443;-67
2020/12/20 03:30:34;;;;;;;10.80;9.93;;;10.30;99.90;;;;;;5074594;28;20442;-67
2020/12/20 03:33:01;;;;;;;9.90;9.20;;;10.30;99.90;;;;;;5074748;28;20443;-67
2020/12/20 03:35:27;;;;;;;10.23;9.23;;;10.30;99.90;;;;;;5074646;28;20459;-67
2020/12/20 03:37:55;;;;;;;12.90;11.87;;;10.20;99.90;;;;;;5074750;28;20820;-67
2020/12/20 03:40:24;;;;;;;10.60;9.90;;;10.20;99.90;;;;;;5074326;28;21020;-67
2020/12/20 03:42:51;;;;;;;10.40;9.47;;;10.20;99.90;;;;;;5074494;28;20952;-67
2020/12/20 03:45:18;;;;;;;11.73;10.37;;;10.20;99.90;;;;;;5074522;28;20470;-68
2020/12/20 03:47:47;;;;;;;10.60;9.70;;;10.20;99.90;;;;;;5074397;28;20439;-67
2020/12/20 03:50:13;;;;;;;13.93;9.43;;;10.20;99.90;;;;;;5074293;28;20442;-67
2020/12/20 03:52:39;;;;;;;9.70;8.80;;;10.20;99.90;;;;;;5074531;28;20470;-67
2020/12/20 03:55:06;;;;;;;10.10;9.40;;;10.20;99.90;;;;;;5074345;28;20477;-68
2020/12/20 03:57:32;;;;;;;10.97;9.73;;;10.30;99.90;;;;;;5074330;28;20443;-66
2020/12/20 03:59:59;;;;;;;9.33;8.63;;;10.30;99.90;;;;;;5074017;28;20439;-67
2020/12/20 04:02:25;;;;;;;9.63;8.77;;;10.20;99.90;;;;;;5074210;28;20452;-67
2020/12/20 04:04:52;;;;;;;10.20;9.20;;;10.20;99.90;;;;;;5074218;28;20463;-68
2020/12/20 04:07:19;;;;;;;10.47;9.57;;;10.20;99.90;;;;;;5074096;28;20962;-67
2020/12/20 04:09:45;;;;;;;9.57;8.70;;;10.20;99.90;;;;;;5074022;28;20446;-67
2020/12/20 04:12:11;;;;;;;11.10;10.03;;;10.10;99.90;;;;;;5074014;28;20504;-68
2020/12/20 04:14:38;;;;;;;12.07;10.87;;;10.10;99.90;;;;;;5073978;28;20512;-68
2020/12/20 04:17:04;;;;;;;9.33;8.53;;;10.10;99.90;;;;;;5073921;28;20454;-67
2020/12/20 04:19:30;;;;;;;8.93;8.23;;;10.10;99.90;;;;;;5073938;28;20470;-65
2020/12/20 04:21:57;;;;;;;10.20;9.30;;;10.20;99.90;;;;;;5073685;28;20536;-66
2020/12/20 04:24:24;;;;;;;9.10;8.30;;;10.10;99.90;;;;;;5073782;28;20479;-65
2020/12/20 04:26:50;;;;;;;10.70;9.80;;;10.10;99.90;;;;;;5073732;28;20443;-65
2020/12/20 04:29:16;;;;;;;11.17;9.70;;;10.10;99.90;;;;;;5073780;28;20449;-65
2020/12/20 04:31:43;;;;;;;9.10;8.40;;;10.20;99.90;;;;;;5073607;28;20436;-67
2020/12/20 04:34:09;;;;;;;10.50;9.60;;;10.10;99.90;;;;;;5073600;28;20446;-66
2020/12/20 04:36:35;;;;;;;10.60;9.80;;;10.20;99.90;;;;;;5073655;28;20439;-66
2020/12/20 04:39:04;;;;;;;9.90;9.00;;;10.20;99.90;;;;;;5073486;28;20440;-68
2020/12/20 04:41:30;;;;;;;9.93;9.03;;;10.10;99.90;;;;;;5073172;28;20486;-67
2020/12/20 04:43:56;;;;;;;10.70;9.57;;;10.10;99.90;;;;;;5073433;28;20994;-66
2020/12/20 04:46:26;;;;;;;10.43;9.40;;;10.10;99.90;;;;;;5073362;28;20459;-66
2020/12/20 04:48:53;;;;;;;10.17;9.30;;;10.10;99.90;;;;;;5073364;28;20439;-66
2020/12/20 04:51:21;;;;;;;10.07;9.37;;;10.10;99.90;;;;;;5073069;28;20439;-65
2020/12/20 04:53:48;;;;;;;9.80;8.97;;;10.10;99.90;;;;;;5073185;28;20458;-66
2020/12/20 04:56:16;;;;;;;10.63;9.70;;;10.10;99.90;;;;;;5073054;28;20971;-65
2020/12/20 04:58:42;;;;;;;9.60;8.80;;;10.10;99.90;;;;;;5073246;28;21002;-64
2020/12/20 05:01:09;;;;;;;10.47;9.40;;;10.10;99.90;;;;;;5072839;28;20475;-68
2020/12/20 05:03:36;;;;;;;9.97;9.17;;;10.10;99.90;;;;;;5073152;28;20445;-68
2020/12/20 05:06:03;;;;;;;9.10;8.30;;;10.10;99.90;;;;;;5072910;28;20467;-66
2020/12/20 05:08:29;;;;;;;9.70;8.83;;;10.00;99.90;;;;;;5073052;28;20458;-67
2020/12/20 05:10:56;;;;;;;9.03;8.33;;;10.10;99.90;;;;;;5072783;28;20435;-67
2020/12/20 05:13:37;;;;;;;11.57;10.47;;;10.10;99.90;;;;;;5072963;28;20496;-66
2020/12/20 05:16:04;;;;;;;11.43;10.43;;;10.00;99.90;;;;;;5072827;28;20979;-66
2020/12/20 05:18:30;;;;;;;13.13;9.00;;;10.00;99.90;;;;;;5072749;28;20928;-67
2020/12/20 05:20:56;;;;;;;10.47;9.47;;;10.00;99.90;;;;;;5072469;28;20976;-67
2020/12/20 05:23:28;;;;;;;9.80;8.80;;;10.10;99.90;;;;;;5072716;28;20865;-66
2020/12/20 05:26:05;;;;;;;10.63;8.63;;;10.10;99.90;;;;;;5072333;28;20479;-67
2020/12/20 05:28:32;;;;;;;9.47;8.67;;;10.00;99.90;;;;;;5072539;28;20809;-67
2020/12/20 05:31:07;;;;;;;9.13;8.47;;;10.00;99.90;;;;;;5072288;28;20439;-66
2020/12/20 05:33:33;;;;;;;11.97;9.37;;;10.10;99.90;;;;;;5072504;28;20450;-67
2020/12/20 05:36:01;;;;;;;9.63;8.73;;;10.00;99.90;;;;;;5072101;28;20509;-67
2020/12/20 05:38:27;;;;;;;9.33;8.60;;;10.00;99.90;;;;;;5071958;28;20447;-67
2020/12/20 05:40:54;;;;;;;9.27;8.57;;;10.00;99.90;;;;;;5071991;28;20479;-67
2020/12/20 05:43:23;;;;;;;9.93;9.13;;;10.10;99.90;;;;;;5072329;28;20447;-67
2020/12/20 05:45:51;;;;;;;9.60;8.60;;;10.10;99.90;;;;;;5072091;28;20459;-67
2020/12/20 05:48:18;;;;;;;9.97;9.17;;;10.00;99.90;;;;;;5072236;28;20451;-67
2020/12/20 05:50:52;;;;;;;9.90;8.43;;;10.10;99.90;;;;;;5071995;28;20439;-67
2020/12/20 05:53:23;;;;;;;9.77;8.97;;;10.10;99.90;;;;;;5072116;28;20451;-66
2020/12/20 05:55:50;;;;;;;10.87;9.83;;;10.00;99.90;;;;;;5071988;28;20971;-66
2020/12/20 05:58:17;;;;;;;9.17;8.30;;;10.10;99.90;;;;;;5072003;28;20447;-67
2020/12/20 06:00:45;;;;;;;10.77;9.77;;;10.10;99.90;;;;;;5071669;28;20533;-67
2020/12/20 06:03:12;;;;;;;9.70;8.90;;;10.00;99.90;;;;;;5071909;28;20442;-67
2020/12/20 06:05:40;;;;;;;10.37;9.30;;;10.10;99.90;;;;;;5071873;28;20513;-67
2020/12/20 06:08:08;;;;;;;10.00;9.00;;;10.10;99.90;;;;;;5071784;28;20447;-66
2020/12/20 06:10:37;;;;;;;12.00;8.87;;;10.00;99.90;;;;;;5071661;28;20499;-66
2020/12/20 06:13:05;;;;;;;9.17;8.30;;;10.00;99.90;;;;;;5071772;28;20542;-67
2020/12/20 06:15:35;;;;;;;10.23;9.23;;;10.00;99.90;;;;;;5071720;28;20478;-66
2020/12/20 06:18:06;;;;;;;10.37;8.43;;;10.10;99.90;;;;;;5071736;28;20442;-67
2020/12/20 06:20:38;;;;;;;11.23;10.07;;;10.00;99.90;;;;;;5071398;28;20478;-66
2020/12/20 06:23:04;;;;;;;10.07;9.17;;;10.00;99.90;;;;;;5071680;28;20447;-65
2020/12/20 06:25:32;;;;;;;10.03;9.03;;;10.00;99.90;;;;;;5071381;28;20513;-65
2020/12/20 06:28:03;;;;;;;10.03;9.03;;;10.00;99.90;;;;;;5071662;28;20443;-64
2020/12/20 06:30:29;;;;;;;9.77;9.00;;;10.00;99.90;;;;;;5071495;28;20439;-65
2020/12/20 06:33:02;;;;;;;10.10;9.30;;;10.00;99.90;;;;;;5071585;28;20479;-64
2020/12/20 06:35:30;;;;;;;10.33;9.33;;;10.00;99.90;;;;;;5071591;28;20463;-65
2020/12/20 06:37:58;;;;;;;10.23;9.30;;;10.00;99.90;;;;;;5071675;28;20444;-65
2020/12/20 06:40:43;;;;;;;9.40;8.50;;;10.00;99.90;;;;;;5071365;28;20498;-66
2020/12/20 06:43:10;;;;;;;11.37;10.37;;;10.00;99.90;;;;;;5071531;28;20438;-67
2020/12/20 06:45:41;;;;;;;8.40;7.70;;;9.90;99.90;;;;;;5071314;28;20529;-67
2020/12/20 06:48:09;;;;;;;9.10;8.30;;;10.00;99.90;;;;;;5070502;28;20812;-67
2020/12/20 06:50:43;;;;;;;8.77;7.97;;;10.00;99.90;;;;;;5071167;28;20439;-67
2020/12/20 06:53:11;;;;;;;8.73;8.03;;;10.00;99.90;;;;;;5071298;28;20466;-66
2020/12/20 06:55:37;;;;;;;9.27;8.47;;;10.00;99.90;;;;;;5071162;28;21010;-67
2020/12/20 06:58:16;;;;;;;9.87;9.07;;;9.90;99.90;;;;;;5071314;28;20445;-67
2020/12/20 07:00:47;;;;;;;8.70;8.00;;;9.90;99.90;;;;;;5071050;28;20505;-67
2020/12/20 07:03:36;;;;;;;9.63;8.73;;;9.90;99.90;;;;;;5071158;28;20529;-67
2020/12/20 07:06:17;;;;;;;9.07;8.27;;;9.90;99.90;;;;;;5062653;28;20475;-67
2020/12/20 07:08:54;;;;;;;9.53;8.73;;;9.80;99.90;;;;;;5071215;28;20442;-67
2020/12/20 07:11:21;;;;;;;11.27;10.20;;;9.80;99.90;;;;;;5071022;28;20895;-66
2020/12/20 07:13:49;;;;;;;10.90;9.10;;;9.80;99.90;;;;;;5071155;28;20443;-65
2020/12/20 07:16:18;;;;;;;10.20;9.30;;;9.80;99.90;;;;;;5071059;28;20564;-64
2020/12/20 07:18:55;;;;;;;9.67;8.90;;;9.70;99.90;;;;;;5071227;28;20790;-65
2020/12/20 07:22:09;;;;;;;10.10;9.10;;;9.70;99.90;;;;;;5070845;28;20489;-64
2020/12/20 07:24:36;;;;;;;11.10;10.00;;;9.70;99.90;;;;;;5070836;28;20532;-67
2020/12/20 07:27:05;;;;;;;11.53;10.33;;;9.60;99.90;;;;;;5071042;28;20443;-67
2020/12/20 07:29:33;;;;;;;9.90;9.10;;;9.60;99.90;;;;;;5070810;28;20511;-66
2020/12/20 07:32:03;;;;;;;9.60;8.80;;;9.60;99.90;;;;;;5070985;28;20530;-66
2020/12/20 07:34:29;;;;;;;10.00;9.10;;;9.50;99.90;;;;;;5070962;28;20459;-67
2020/12/20 07:36:56;;;;;;;10.13;9.13;;;9.60;99.90;;;;;;5070989;28;20803;-66
2020/12/20 07:39:24;;;;;;;9.93;9.00;;;9.50;99.90;;;;;;5070998;28;20443;-67
2020/12/20 07:41:51;;;;;;;10.07;9.20;;;9.50;99.90;;;;;;5070612;28;21011;-65
2020/12/20 07:44:17;;;;;;;10.93;10.03;;;9.50;99.90;;;;;;5070816;28;20439;-66
2020/12/20 07:46:44;;;;;;;10.70;9.70;;;9.50;99.90;;;;;;5070931;28;20443;-68
2020/12/20 07:49:12;;;;;;;9.87;8.97;;;9.50;99.90;;;;;;5070826;28;20439;-66
2020/12/20 07:51:38;;;;;;;11.33;9.57;;;9.50;99.90;;;;;;5070629;28;20435;-67
2020/12/20 07:54:08;;;;;;;9.93;9.13;;;9.50;99.90;;;;;;5070631;28;20816;-67
2020/12/20 07:56:36;;;;;;;10.47;9.47;;;9.50;99.90;;;;;;5070675;28;20447;-65
2020/12/20 07:59:05;;;;;;;10.10;9.10;;;9.50;99.90;;;;;;5070857;28;20516;-65
2020/12/20 08:01:32;;;;;;;10.30;9.50;;;9.50;99.90;;;;;;5073894;28;20478;-68
2020/12/20 08:04:03;;;;;;;10.40;9.50;;;9.50;99.90;;;;;;5074276;28;20482;-68
2020/12/20 08:06:30;;;;;;;10.43;9.57;;;9.50;99.90;;;;;;5074170;28;20454;-68
2020/12/20 08:09:05;;;;;;;11.03;10.03;;;9.50;99.90;;;;;;5074242;28;20443;-68
2020/12/20 08:11:32;;;;;;;9.63;8.67;;;9.60;99.90;;;;;;5074052;28;20451;-64
2020/12/20 08:14:00;;;;;;;11.07;9.97;;;9.60;99.90;;;;;;5074080;28;21005;-64
2020/12/20 08:16:28;;;;;;;10.20;9.30;;;9.60;99.90;;;;;;5073835;28;20459;-66
2020/12/20 08:19:00;;;;;;;12.60;10.73;;;9.70;99.90;;;;;;5073950;28;20443;-65
2020/12/20 08:22:02;;;;;;;9.63;8.80;;;9.70;99.90;;;;;;5073587;28;21049;-65
2020/12/20 08:24:29;;;;;;;11.93;10.80;;;9.70;99.90;;;;;;5073947;28;20482;-67
2020/12/20 08:26:57;;;;;;;12.30;11.00;;;9.80;99.90;;;;;;5073766;28;20443;-68
2020/12/20 08:29:23;;;;;;;11.23;10.23;;;9.80;99.90;;;;;;5073667;28;20861;-67
2020/12/20 08:31:50;;;;;;;13.40;10.13;;;9.90;99.90;;;;;;5073502;28;20435;-68
2020/12/20 08:34:19;;;;;;;11.13;10.13;;;9.90;99.90;;;;;;5073647;28;20439;-67
2020/12/20 08:36:47;;;;;;;12.37;11.20;;;10.00;99.90;;;;;;5073512;28;20447;-67
2020/12/20 08:39:14;;;;;;;10.33;9.40;;;10.00;99.90;;;;;;5073582;28;20443;-65
2020/12/20 08:41:41;;;;;;;12.17;11.07;;;10.10;99.90;;;;;;5073270;28;20485;-64
2020/12/20 08:44:09;;;;;;;13.60;12.20;;;10.10;99.90;;;;;;5072189;28;20434;-66
2020/12/20 08:46:38;;;;;;;11.80;11.00;;;10.20;99.90;;;;;;5072972;28;20211;-66
2020/12/20 08:49:26;;;;;;;13.10;11.80;;;10.40;99.90;;;;;;5073360;28;20439;-65
2020/12/20 08:51:52;;;;;;;12.00;10.80;;;10.50;99.90;;;;;;5068028;28;20446;-67
2020/12/20 08:54:26;;;;;;;12.67;11.57;;;10.60;99.90;;;;;;5073092;28;20435;-66
2020/12/20 08:56:59;;;;;;;12.90;11.80;;;10.70;99.90;;;;;;5072890;28;20446;-65
2020/12/20 08:59:37;;;;;;;13.37;11.70;;;10.70;99.90;;;;;;5073038;28;20435;-67
2020/12/20 09:02:06;;;;;;;12.03;11.03;;;10.80;99.90;;;;;;5072974;28;20642;-69
2020/12/20 09:04:35;;;;;;;12.80;11.80;;;10.90;99.90;;;;;;5073078;28;20455;-68
2020/12/20 09:07:11;;;;;;;13.80;12.50;;;10.90;99.90;;;;;;5073010;28;20865;-67
2020/12/20 09:09:38;;;;;;;14.47;13.27;;;10.90;99.90;;;;;;5073907;28;20459;-68
2020/12/20 09:12:16;;;;;;;13.30;12.27;;;11.00;99.90;;;;;;5072966;28;20442;-66
2020/12/20 09:14:58;;;;;;;12.40;11.43;;;11.20;99.90;;;;;;5073069;28;20463;-67
2020/12/20 09:17:29;;;;;;;13.70;12.70;;;11.20;99.90;;;;;;5072861;28;20485;-67
2020/12/20 09:19:57;;;;;;;14.90;13.70;;;11.20;99.90;;;;;;5072510;28;20447;-66
2020/12/20 09:22:38;;;;;;;14.47;13.23;;;11.30;99.90;;;;;;5072564;28;20475;-67
2020/12/20 09:25:04;;;;;;;14.67;13.27;;;11.30;99.90;;;;;;5072489;28;20478;-68
2020/12/20 09:27:30;;;;;;;13.57;12.70;;;11.40;99.90;;;;;;5072534;28;20443;-67
2020/12/20 09:29:57;;;;;;;14.20;12.97;;;11.40;99.90;;;;;;5072149;28;20512;-66
2020/12/20 09:32:24;;;;;;;14.03;12.93;;;11.50;99.90;;;;;;5072165;28;20440;-66
2020/12/20 09:34:50;;;;;;;15.30;14.30;;;11.70;99.90;;;;;;5072325;28;20529;-66
2020/12/20 09:37:17;;;;;;;15.40;14.00;;;11.70;99.90;;;;;;5072277;28;20447;-67
2020/12/20 09:39:54;;;;;;;15.23;14.13;;;11.90;99.90;;;;;;5072115;28;20474;-65
2020/12/20 09:42:21;;;;;;;15.00;14.00;;;12.00;99.90;;;;;;5072087;28;20482;-66
2020/12/20 09:44:47;;;;;;;16.97;15.80;;;12.10;99.90;;;;;;5072006;28;20467;-66
2020/12/20 09:47:13;;;;;;;14.77;13.77;;;12.30;99.90;;;;;;5071798;28;20859;-66
2020/12/20 09:49:40;;;;;;;14.77;13.80;;;12.40;99.90;;;;;;5071939;28;20439;-65
2020/12/20 09:52:06;;;;;;;16.70;15.20;;;12.50;99.90;;;;;;5071880;28;20496;-65
2020/12/20 09:54:33;;;;;;;17.23;15.93;;;12.60;99.90;;;;;;5072011;28;20467;-66
2020/12/20 09:57:00;;;;;;;16.13;14.93;;;12.70;99.90;;;;;;5071946;28;20495;-65
2020/12/20 09:59:26;;;;;;;17.23;15.93;;;12.70;99.90;;;;;;5071825;28;20451;-65
2020/12/20 10:01:53;;;;;;;17.10;15.80;;;12.70;99.90;;;;;;5071418;28;20479;-65
2020/12/20 10:04:19;;;;;;;17.23;16.03;;;12.70;99.90;;;;;;5071557;28;20443;-64
2020/12/20 10:06:46;;;;;;;17.33;16.13;;;12.80;99.90;;;;;;5071725;28;20466;-63
2020/12/20 10:09:12;;;;;;;16.50;14.90;;;12.80;99.90;;;;;;5071567;28;20447;-64
2020/12/20 10:11:39;;;;;;;17.13;15.90;;;12.80;99.90;;;;;;5071355;28;20462;-67
2020/12/20 10:14:06;;;;;;;17.90;16.50;;;12.70;99.90;;;;;;5071583;28;20443;-66
2020/12/20 10:16:32;;;;;;;17.83;16.43;;;12.70;99.90;;;;;;5071604;28;20567;-65
2020/12/20 10:18:59;;;;;;;17.70;16.70;;;12.80;99.90;;;;;;5071611;28;20442;-64
2020/12/20 10:21:26;;;;;;;17.93;16.57;;;12.70;99.90;;;;;;5071052;28;20478;-64
2020/12/20 10:23:52;;;;;;;16.60;15.30;;;12.70;99.90;;;;;;5071566;28;20450;-66
2020/12/20 10:26:19;;;;;;;17.10;16.00;;;12.70;99.90;;;;;;5071333;28;20567;-64
2020/12/20 10:28:46;;;;;;;17.53;16.23;;;12.60;99.90;;;;;;5071585;28;20920;-65
2020/12/20 10:31:18;;;;;;;17.27;16.20;;;12.60;99.90;;;;;;5071188;28;20915;-65
2020/12/20 10:33:44;;;;;;;17.37;16.07;;;12.60;99.90;;;;;;5071630;28;20479;-67
2020/12/20 10:36:12;;;;;;;18.20;16.60;;;12.60;99.90;;;;;;5071346;28;20541;-64
2020/12/20 10:38:39;;;;;;;17.03;15.93;;;12.60;99.90;;;;;;5071392;28;20529;-64
2020/12/20 10:41:05;;;;;;;18.63;17.13;;;12.60;99.90;;;;;;5071023;28;20483;-65
2020/12/20 10:43:32;;;;;;;18.90;17.50;;;12.60;99.90;;;;;;5071306;28;20444;-65
2020/12/20 10:46:00;;;;;;;17.50;16.30;;;12.60;99.90;;;;;;5071250;28;20542;-66
2020/12/20 10:48:26;;;;;;;17.27;15.97;;;12.60;99.90;;;;;;5071267;28;20443;-64
2020/12/20 10:50:53;;;;;;;17.37;16.27;;;12.70;99.90;;;;;;5071072;28;20477;-64
2020/12/20 10:53:20;;;;;;;18.00;16.40;;;12.70;99.90;;;;;;5071384;28;20461;-66
2020/12/20 10:55:46;;;;;;;17.63;16.27;;;12.70;99.90;;;;;;5071099;28;20554;-66
2020/12/20 10:58:13;;;;;;;17.13;16.13;;;12.60;99.90;;;;;;5071281;28;20443;-66
2020/12/20 11:00:40;;;;;;;16.70;15.53;;;12.70;99.90;;;;;;5070914;28;20526;-68
2020/12/20 11:03:07;;;;;;;18.47;17.30;;;12.70;99.90;;;;;;5070552;28;20526;-67
2020/12/20 11:05:35;;;;;;;15.90;14.70;;;12.70;99.90;;;;;;5070000;28;20554;-67
2020/12/20 11:08:03;;;;;;;16.97;15.83;;;12.70;99.90;;;;;;5071183;28;20959;-68
2020/12/20 11:10:29;;;;;;;17.73;16.30;;;12.70;99.90;;;;;;5070923;28;20867;-66
2020/12/20 11:12:56;;;;;;;15.57;14.57;;;12.80;99.90;;;;;;5071261;28;20839;-67
2020/12/20 11:15:22;;;;;;;17.90;16.33;;;12.80;99.90;;;;;;5070992;28;20504;-66
2020/12/20 11:17:49;;;;;;;16.80;15.60;;;12.70;99.90;;;;;;5070975;28;20446;-67
2020/12/20 11:20:17;;;;;;;19.13;17.63;;;12.80;99.90;;;;;;5070740;28;20471;-64
2020/12/20 11:22:44;;;;;;;16.67;15.63;;;12.90;99.90;;;;;;5070933;28;20893;-66
2020/12/20 11:25:11;;;;;;;17.27;15.87;;;12.80;99.90;;;;;;5070610;28;20475;-66
2020/12/20 11:27:38;;;;;;;17.93;16.63;;;12.90;99.90;;;;;;5070965;28;20443;-66
2020/12/20 11:30:05;;;;;;;17.00;15.70;;;12.80;99.90;;;;;;5070850;28;20447;-67
2020/12/20 11:32:34;;;;;;;17.57;16.17;;;12.90;99.90;;;;;;5070773;28;20531;-66
2020/12/20 11:35:00;;;;;;;17.53;16.33;;;12.90;99.90;;;;;;5072055;28;20884;-66
2020/12/20 11:37:29;;;;;;;17.00;15.70;;;12.90;99.90;;;;;;5074505;28;20537;-65
2020/12/20 11:39:56;;;;;;;16.63;15.27;;;12.90;99.90;;;;;;5074477;28;20983;-65
2020/12/20 11:42:22;;;;;;;17.37;16.37;;;12.90;99.90;;;;;;5074396;28;20483;-65
2020/12/20 11:44:49;;;;;;;18.20;16.67;;;12.90;99.90;;;;;;5074499;28;20545;-65
2020/12/20 11:47:15;;;;;;;16.40;15.30;;;12.90;99.90;;;;;;5074391;28;20465;-66
2020/12/20 11:49:42;;;;;;;16.87;15.53;;;12.90;99.90;;;;;;5074198;28;20893;-65
2020/12/20 11:52:09;;;;;;;16.87;15.77;;;13.00;99.90;;;;;;5074257;28;21013;-65
2020/12/20 11:54:38;;;;;;;17.17;16.03;;;13.00;99.90;;;;;;5074118;28;20517;-67
2020/12/20 11:57:04;;;;;;;18.70;16.97;;;12.90;99.90;;;;;;5074369;28;20545;-66
2020/12/20 11:59:32;;;;;;;17.87;16.67;;;13.00;99.90;;;;;;5074102;28;20532;-64
2020/12/20 12:02:00;;;;;;;17.00;15.80;;;13.00;99.90;;;;;;5073887;28;20570;-64
2020/12/20 12:04:27;;;;;;;17.43;16.17;;;13.20;99.90;;;;;;5074063;28;20470;-67
2020/12/20 12:06:53;;;;;;;16.93;15.70;;;13.30;99.90;;;;;;5074049;28;21257;-66
2020/12/20 12:09:20;;;;;;;17.17;16.13;;;13.30;99.90;;;;;;5074234;28;20443;-66
2020/12/20 12:11:51;;;;;;;17.93;16.70;;;13.40;99.90;;;;;;5073770;28;20439;-66
2020/12/20 12:14:18;;;;;;;18.20;16.80;;;13.50;99.90;;;;;;5073993;28;20521;-66
2020/12/20 12:16:44;;;;;;;16.67;15.60;;;13.50;99.90;;;;;;5073875;28;20505;-67
2020/12/20 12:19:11;;;;;;;19.40;17.80;;;13.60;99.90;;;;;;5073793;28;20526;-67
2020/12/20 12:21:38;;;;;;;17.70;16.60;;;13.80;99.90;;;;;;5073582;28;20609;-67
2020/12/20 12:24:04;;;;;;;18.70;17.40;;;13.90;99.90;;;;;;5073443;28;20443;-66
2020/12/20 12:26:31;;;;;;;19.40;17.70;;;13.90;99.90;;;;;;5073619;28;20530;-67
2020/12/20 12:28:59;;;;;;;17.47;16.47;;;13.90;99.90;;;;;;5073740;28;20501;-67
2020/12/20 12:31:25;;;;;;;18.10;17.00;;;14.00;99.90;;;;;;5073435;28;20522;-66
2020/12/20 12:33:52;;;;;;;18.67;16.90;;;14.10;99.90;;;;;;5073698;28;20809;-67
2020/12/20 12:36:18;;;;;;;18.20;17.10;;;14.20;99.90;;;;;;5073683;28;20831;-66
2020/12/20 12:38:44;;;;;;;19.33;17.87;;;14.20;99.90;;;;;;5073686;28;20990;-66